Time;durP1;ratioP1;P1;durP2;ratioP2;P2;SDS_P1;SDS_P2;PMS_P1;PMS_P2;Temp;Humidity;BMP_temperature;BMP_pressure;BME280_temperature;BME280_humidity;BME280_pressure;Samples;Min_cycle;Max_cycle;Signal;HPM_P1;HPM_P2
2021/09/15 00:00:19;;;;;;;21.88;19.60;;;17.90;99.90;;;;;;4971856;28;20403;-65
2021/09/15 00:02:45;;;;;;;20.30;18.40;;;17.80;99.90;;;;;;4987257;28;20661;-65
2021/09/15 00:05:10;;;;;;;19.80;18.15;;;17.80;99.90;;;;;;4985494;28;20089;-65
2021/09/15 00:07:36;;;;;;;20.90;18.80;;;17.80;99.90;;;;;;4988727;28;20093;-65
2021/09/15 00:10:03;;;;;;;21.23;19.17;;;17.70;99.90;;;;;;4987282;28;20051;-65
2021/09/15 00:12:29;;;;;;;22.05;19.98;;;17.80;99.90;;;;;;4989123;28;20371;-65
2021/09/15 00:14:55;;;;;;;20.67;18.88;;;17.70;99.90;;;;;;4987780;28;20057;-65
2021/09/15 00:17:21;;;;;;;21.25;19.30;;;17.70;99.90;;;;;;4987380;28;20038;-65
2021/09/15 00:19:46;;;;;;;21.58;19.58;;;17.70;99.90;;;;;;4987641;28;20420;-65
2021/09/15 00:22:12;;;;;;;22.08;20.13;;;17.60;99.90;;;;;;4987349;28;20038;-65
2021/09/15 00:24:38;;;;;;;20.98;19.08;;;17.60;99.90;;;;;;4987798;28;20500;-65
2021/09/15 00:27:03;;;;;;;22.00;19.70;;;17.60;99.90;;;;;;4986198;28;20038;-65
2021/09/15 00:29:29;;;;;;;22.40;20.38;;;17.50;99.90;;;;;;4985722;28;20054;-65
2021/09/15 00:31:55;;;;;;;23.15;21.10;;;17.50;99.90;;;;;;4988394;28;20496;-64
2021/09/15 00:34:22;;;;;;;22.33;20.15;;;17.50;99.90;;;;;;4988142;28;20134;-65
2021/09/15 00:36:47;;;;;;;20.63;18.60;;;17.50;99.90;;;;;;4983632;28;20117;-65
2021/09/15 00:39:13;;;;;;;24.10;22.00;;;17.40;99.90;;;;;;4985601;28;20046;-65
2021/09/15 00:41:38;;;;;;;23.75;21.13;;;17.40;99.90;;;;;;4988161;28;20050;-65
2021/09/15 00:44:09;;;;;;;23.27;20.98;;;17.50;99.90;;;;;;4984760;28;20077;-65
2021/09/15 00:46:36;;;;;;;22.95;20.92;;;17.50;99.90;;;;;;4984962;28;20050;-65
2021/09/15 00:49:03;;;;;;;26.27;23.65;;;17.50;99.90;;;;;;4982749;28;20038;-65
2021/09/15 00:51:37;;;;;;;26.13;23.80;;;17.50;99.90;;;;;;4985914;28;21245;-65
2021/09/15 00:54:04;;;;;;;25.13;22.65;;;17.50;99.90;;;;;;4983847;28;20042;-65
2021/09/15 00:56:30;;;;;;;23.17;21.00;;;17.50;99.90;;;;;;4983984;28;20647;-65
2021/09/15 00:58:56;;;;;;;25.83;22.77;;;17.40;99.90;;;;;;4986549;28;20034;-65
2021/09/15 01:01:21;;;;;;;27.02;24.33;;;17.40;99.90;;;;;;4984912;28;20137;-65
2021/09/15 01:03:47;;;;;;;22.60;20.60;;;17.50;99.90;;;;;;4986368;28;20120;-65
2021/09/15 01:06:12;;;;;;;21.95;19.60;;;17.40;99.90;;;;;;4986691;28;20069;-65
2021/09/15 01:08:39;;;;;;;24.45;22.35;;;17.40;99.90;;;;;;4983408;28;20489;-65
2021/09/15 01:11:05;;;;;;;24.92;22.83;;;17.30;99.90;;;;;;4986343;28;20042;-65
2021/09/15 01:13:32;;;;;;;27.95;25.25;;;17.30;99.90;;;;;;4985805;28;20123;-65
2021/09/15 01:15:58;;;;;;;29.38;26.55;;;17.30;99.90;;;;;;4985123;28;20109;-65
2021/09/15 01:18:24;;;;;;;28.95;26.30;;;17.30;99.90;;;;;;4985545;28;20043;-65
2021/09/15 01:20:50;;;;;;;34.10;28.73;;;17.40;99.90;;;;;;4987014;28;20042;-65
2021/09/15 01:23:15;;;;;;;32.15;28.60;;;17.40;99.90;;;;;;4985165;28;20033;-65
2021/09/15 01:25:41;;;;;;;32.17;28.92;;;17.40;99.90;;;;;;4986590;28;20047;-65
2021/09/15 01:28:07;;;;;;;32.28;29.00;;;17.40;99.90;;;;;;4985397;28;20046;-65
2021/09/15 01:30:32;;;;;;;32.58;29.35;;;17.40;99.90;;;;;;4986694;28;22863;-65
2021/09/15 01:32:58;;;;;;;33.88;30.48;;;17.40;99.90;;;;;;4981191;28;20053;-65
2021/09/15 01:35:24;;;;;;;32.05;28.83;;;17.40;99.90;;;;;;4983827;28;20508;-65
2021/09/15 01:37:50;;;;;;;33.40;30.10;;;17.40;99.90;;;;;;4984779;28;20035;-65
2021/09/15 01:40:16;;;;;;;33.40;30.00;;;17.50;99.90;;;;;;4985544;28;20058;-65
2021/09/15 01:42:42;;;;;;;29.00;26.13;;;17.40;99.90;;;;;;4985615;28;20030;-65
2021/09/15 01:45:09;;;;;;;30.30;27.60;;;17.40;99.90;;;;;;4984452;28;20030;-65
2021/09/15 01:47:36;;;;;;;34.45;31.10;;;17.40;99.90;;;;;;4983184;28;20037;-65
2021/09/15 01:50:03;;;;;;;36.28;32.65;;;17.40;99.90;;;;;;4984615;28;20039;-65
2021/09/15 01:52:29;;;;;;;35.42;31.70;;;17.50;99.90;;;;;;4982152;28;21000;-65
2021/09/15 01:54:54;;;;;;;33.58;30.17;;;17.50;99.90;;;;;;4984291;28;20035;-65
2021/09/15 01:57:20;;;;;;;38.50;34.50;;;17.50;99.90;;;;;;4985704;28;20042;-65
2021/09/15 01:59:46;;;;;;;34.90;31.38;;;17.50;99.90;;;;;;4984938;28;20050;-65
2021/09/15 02:02:14;;;;;;;36.25;32.50;;;17.50;99.90;;;;;;4984689;28;20100;-65
2021/09/15 02:04:40;;;;;;;37.95;34.00;;;17.50;99.90;;;;;;4983839;28;20050;-65
2021/09/15 02:07:08;;;;;;;36.78;33.13;;;17.50;99.90;;;;;;4986058;28;20066;-65
2021/09/15 02:09:34;;;;;;;39.42;35.50;;;17.50;99.90;;;;;;4985014;28;20081;-65
2021/09/15 02:11:59;;;;;;;40.53;36.42;;;17.50;99.90;;;;;;4984895;28;20078;-65
2021/09/15 02:14:25;;;;;;;38.00;34.20;;;17.50;99.90;;;;;;4983895;28;20041;-65
2021/09/15 02:16:51;;;;;;;38.53;34.70;;;17.50;99.90;;;;;;4983834;28;20049;-65
2021/09/15 02:19:18;;;;;;;36.72;32.92;;;17.60;99.90;;;;;;4985979;28;20061;-65
2021/09/15 02:21:43;;;;;;;39.30;35.13;;;17.60;99.90;;;;;;4983195;28;20567;-65
2021/09/15 02:24:09;;;;;;;40.10;35.95;;;17.60;99.90;;;;;;4985528;28;20073;-65
2021/09/15 02:26:35;;;;;;;43.70;37.13;;;17.60;99.90;;;;;;4989843;28;20035;-65
2021/09/15 02:29:02;;;;;;;40.35;35.70;;;17.70;99.90;;;;;;4990685;28;20038;-65
2021/09/15 02:31:28;;;;;;;43.17;38.63;;;17.70;99.90;;;;;;4988242;28;20045;-65
2021/09/15 02:33:54;;;;;;;42.83;38.47;;;17.70;99.90;;;;;;4986228;28;20054;-65
2021/09/15 02:36:21;;;;;;;40.33;35.65;;;17.70;99.90;;;;;;4987110;28;20049;-65
2021/09/15 02:38:46;;;;;;;40.35;36.05;;;17.70;99.90;;;;;;4987824;28;20058;-65
2021/09/15 02:41:12;;;;;;;42.65;38.22;;;17.70;99.90;;;;;;4989241;28;20479;-65
2021/09/15 02:43:38;;;;;;;40.85;36.58;;;17.70;99.90;;;;;;4988780;28;20125;-65
2021/09/15 02:46:03;;;;;;;44.20;39.30;;;17.80;99.90;;;;;;4986747;28;20097;-65
2021/09/15 02:48:29;;;;;;;47.13;40.20;;;17.70;99.90;;;;;;4985837;28;20065;-65
2021/09/15 02:50:55;;;;;;;45.40;38.85;;;17.70;99.90;;;;;;4988827;28;20128;-65
2021/09/15 02:53:21;;;;;;;43.53;38.92;;;17.70;99.90;;;;;;4988766;28;20100;-65
2021/09/15 02:55:47;;;;;;;45.97;39.63;;;17.70;99.90;;;;;;4987382;28;20488;-65
2021/09/15 02:58:12;;;;;;;44.97;40.17;;;17.70;99.90;;;;;;4988237;28;20065;-65
2021/09/15 03:00:38;;;;;;;48.95;41.45;;;17.70;99.90;;;;;;4986048;28;20045;-65
2021/09/15 03:03:04;;;;;;;49.05;42.58;;;17.70;99.90;;;;;;4987158;28;20108;-65
2021/09/15 03:05:31;;;;;;;48.15;41.10;;;17.60;99.90;;;;;;4986498;28;20038;-65
2021/09/15 03:08:00;;;;;;;47.55;41.00;;;17.70;99.90;;;;;;4988084;28;20050;-65
2021/09/15 03:10:27;;;;;;;45.33;40.53;;;17.60;99.90;;;;;;4985769;28;20038;-65
2021/09/15 03:12:53;;;;;;;43.53;38.22;;;17.60;99.90;;;;;;4988589;28;20395;-65
2021/09/15 03:15:19;;;;;;;45.95;41.08;;;17.60;99.90;;;;;;4987813;28;20044;-65
2021/09/15 03:17:44;;;;;;;48.15;42.10;;;17.60;99.90;;;;;;4987027;28;20054;-65
2021/09/15 03:20:10;;;;;;;43.35;38.60;;;17.50;99.90;;;;;;4991489;28;20137;-65
2021/09/15 03:22:36;;;;;;;39.63;34.83;;;17.50;99.90;;;;;;4992487;28;20484;-65
2021/09/15 03:25:02;;;;;;;51.03;43.67;;;17.40;99.90;;;;;;4993254;28;20062;-65
2021/09/15 03:27:28;;;;;;;46.63;41.10;;;17.40;99.90;;;;;;4993822;28;20105;-65
2021/09/15 03:29:53;;;;;;;44.65;38.30;;;17.40;99.90;;;;;;4993859;28;20408;-65
2021/09/15 03:32:19;;;;;;;40.70;36.15;;;17.40;99.90;;;;;;4990878;28;20121;-65
2021/09/15 03:34:45;;;;;;;46.03;41.13;;;17.40;99.90;;;;;;4992584;28;20042;-65
2021/09/15 03:37:10;;;;;;;54.58;45.75;;;17.40;99.90;;;;;;4992647;28;20395;-65
2021/09/15 03:39:36;;;;;;;51.50;43.97;;;17.40;99.90;;;;;;4990890;28;20042;-65
2021/09/15 03:42:02;;;;;;;46.03;41.05;;;17.40;99.90;;;;;;4992032;28;20444;-65
2021/09/15 03:44:28;;;;;;;42.42;34.28;;;17.30;99.90;;;;;;4990870;28;20058;-65
2021/09/15 03:46:54;;;;;;;50.15;42.97;;;17.30;99.90;;;;;;4992033;28;20045;-65
2021/09/15 03:49:20;;;;;;;52.65;44.00;;;17.30;99.90;;;;;;4993064;28;20164;-65
2021/09/15 03:51:46;;;;;;;40.25;35.15;;;17.30;99.90;;;;;;4993542;28;20041;-65
2021/09/15 03:54:12;;;;;;;47.78;40.97;;;17.30;99.90;;;;;;4991311;28;20034;-65
2021/09/15 03:56:37;;;;;;;44.95;40.08;;;17.30;99.90;;;;;;4989907;28;20062;-65
2021/09/15 03:59:03;;;;;;;54.22;42.60;;;17.30;99.90;;;;;;4993271;28;20058;-65
2021/09/15 04:01:28;;;;;;;56.08;44.78;;;17.20;99.90;;;;;;4988123;28;20132;-65
2021/09/15 04:03:54;;;;;;;57.58;46.13;;;17.30;99.90;;;;;;4987245;28;20042;-65
2021/09/15 04:06:20;;;;;;;60.33;44.03;;;17.30;99.90;;;;;;4987370;28;20042;-65
2021/09/15 04:08:45;;;;;;;55.78;44.42;;;17.20;99.90;;;;;;4986037;28;20042;-65
2021/09/15 04:11:11;;;;;;;60.10;47.33;;;17.20;99.90;;;;;;4987930;28;20455;-65
2021/09/15 04:13:36;;;;;;;54.42;44.90;;;17.20;99.90;;;;;;4985212;28;20061;-65
2021/09/15 04:16:02;;;;;;;55.35;43.60;;;17.20;99.90;;;;;;4986378;28;20042;-65
2021/09/15 04:18:28;;;;;;;54.13;45.00;;;17.20;99.90;;;;;;4986800;28;20132;-65
2021/09/15 04:20:53;;;;;;;57.28;46.00;;;17.20;99.90;;;;;;4990371;28;20034;-65
2021/09/15 04:31:32;;;;;;;26.50;23.80;;;17.00;99.90;;;;;;4985964;28;20146;-65
2021/09/15 04:34:00;;;;;;;43.08;36.97;;;16.90;99.90;;;;;;4986402;28;20464;-65
2021/09/15 04:36:26;;;;;;;54.22;39.17;;;16.80;99.90;;;;;;4985500;28;20042;-65
2021/09/15 04:38:52;;;;;;;32.25;26.90;;;16.70;99.90;;;;;;4989310;28;20037;-65
2021/09/15 04:41:18;;;;;;;22.02;19.92;;;16.70;99.90;;;;;;4992031;28;20073;-67
2021/09/15 04:43:44;;;;;;;23.83;21.48;;;16.60;99.90;;;;;;4989257;28;20057;-67
2021/09/15 04:46:10;;;;;;;35.03;31.17;;;16.60;99.90;;;;;;4990725;28;20046;-67
2021/09/15 04:48:37;;;;;;;43.63;36.80;;;16.60;99.90;;;;;;4987739;28;20579;-67
2021/09/15 04:51:03;;;;;;;39.70;34.10;;;16.60;99.90;;;;;;4987468;28;20041;-67
2021/09/15 04:53:29;;;;;;;51.78;38.92;;;16.60;99.90;;;;;;4987999;28;20121;-67
2021/09/15 04:55:55;;;;;;;37.83;33.78;;;16.60;99.90;;;;;;4986448;28;20072;-67
2021/09/15 04:58:20;;;;;;;45.65;35.38;;;16.60;99.90;;;;;;4985210;28;20050;-67
2021/09/15 05:00:46;;;;;;;52.88;39.58;;;16.60;99.90;;;;;;4984906;28;20050;-67
2021/09/15 05:03:11;;;;;;;37.78;33.30;;;16.60;99.90;;;;;;4983779;28;20082;-67
2021/09/15 05:05:37;;;;;;;40.08;35.72;;;16.60;99.90;;;;;;4984649;28;20050;-67
2021/09/15 05:08:03;;;;;;;38.90;34.65;;;16.70;99.90;;;;;;4986684;28;20038;-67
2021/09/15 05:10:28;;;;;;;48.10;40.75;;;16.70;99.90;;;;;;4988593;28;20085;-67
2021/09/15 05:12:55;;;;;;;45.58;39.35;;;16.70;99.90;;;;;;4986370;28;20046;-67
2021/09/15 05:15:22;;;;;;;55.85;44.80;;;16.80;99.90;;;;;;4985086;28;20042;-67
2021/09/15 05:17:48;;;;;;;67.68;49.38;;;16.80;99.90;;;;;;4984925;28;20050;-67
2021/09/15 05:20:17;;;;;;;54.85;43.95;;;16.90;99.90;;;;;;4986875;28;20034;-67
2021/09/15 05:22:46;;;;;;;46.85;39.42;;;16.90;99.90;;;;;;4985893;28;20049;-67
2021/09/15 05:25:13;;;;;;;62.10;48.92;;;16.90;99.90;;;;;;4986272;28;20412;-67
2021/09/15 05:27:39;;;;;;;64.35;47.95;;;17.00;99.90;;;;;;4984492;28;20050;-67
2021/09/15 05:30:06;;;;;;;58.60;43.10;;;17.00;99.90;;;;;;4985262;28;20042;-67
2021/09/15 05:32:32;;;;;;;65.43;47.75;;;17.00;99.90;;;;;;4985045;28;20053;-67
2021/09/15 05:34:57;;;;;;;66.78;48.88;;;17.00;99.90;;;;;;4985649;28;20050;-67
2021/09/15 05:37:23;;;;;;;69.13;48.38;;;17.10;99.90;;;;;;4985255;28;20042;-67
2021/09/15 05:39:49;;;;;;;60.83;45.17;;;17.10;99.90;;;;;;4984391;28;20046;-67
2021/09/15 05:42:14;;;;;;;54.17;44.13;;;17.10;99.90;;;;;;4984022;28;20061;-67
2021/09/15 05:44:40;;;;;;;51.55;43.42;;;17.10;99.90;;;;;;4984888;28;20054;-67
2021/09/15 05:47:05;;;;;;;50.25;41.33;;;17.20;99.90;;;;;;4985931;28;20038;-67
2021/09/15 05:49:31;;;;;;;45.42;39.83;;;17.20;99.90;;;;;;4983458;28;20042;-67
2021/09/15 05:51:56;;;;;;;54.00;43.80;;;17.20;99.90;;;;;;4986356;28;20047;-67
2021/09/15 05:54:22;;;;;;;51.78;42.88;;;17.20;99.90;;;;;;4985673;28;20619;-67
2021/09/15 05:56:48;;;;;;;48.70;41.88;;;17.30;99.90;;;;;;4983426;28;20039;-67
2021/09/15 05:59:13;;;;;;;51.00;43.60;;;17.30;99.90;;;;;;4983910;28;20038;-67
2021/09/15 06:01:39;;;;;;;57.53;44.35;;;17.30;99.90;;;;;;4976523;28;20047;-67
2021/09/15 06:04:04;;;;;;;57.05;46.65;;;17.40;99.90;;;;;;4976788;28;20049;-67
2021/09/15 06:06:30;;;;;;;50.60;43.45;;;17.40;99.90;;;;;;4976244;28;20546;-67
2021/09/15 06:08:56;;;;;;;51.38;43.53;;;17.40;99.90;;;;;;4984470;28;20145;-67
2021/09/15 06:11:22;;;;;;;47.63;41.33;;;17.40;99.90;;;;;;4983832;28;20046;-67
2021/09/15 06:13:49;;;;;;;51.92;41.42;;;17.40;99.90;;;;;;4983827;28;20524;-67
2021/09/15 06:16:14;;;;;;;51.47;43.58;;;17.40;99.90;;;;;;4980947;28;20544;-67
2021/09/15 06:18:40;;;;;;;47.05;41.00;;;17.50;99.90;;;;;;4981337;28;20058;-67
2021/09/15 06:21:06;;;;;;;57.55;46.08;;;17.50;99.90;;;;;;4984192;28;20046;-67
2021/09/15 06:23:32;;;;;;;48.95;43.65;;;17.50;99.90;;;;;;4982871;28;20073;-67
2021/09/15 06:25:59;;;;;;;49.92;42.00;;;17.50;99.90;;;;;;4983444;28;20038;-67
2021/09/15 06:28:26;;;;;;;52.28;42.97;;;17.50;99.90;;;;;;4982399;28;20038;-67
2021/09/15 06:30:52;;;;;;;59.28;45.97;;;17.60;99.90;;;;;;4982820;28;20042;-67
2021/09/15 06:33:18;;;;;;;57.78;46.75;;;17.60;99.90;;;;;;4982375;28;20431;-67
2021/09/15 06:35:43;;;;;;;62.22;48.00;;;17.60;99.90;;;;;;4980654;28;20035;-67
2021/09/15 06:38:12;;;;;;;55.47;46.15;;;17.60;99.90;;;;;;4984399;28;20070;-67
2021/09/15 06:40:39;;;;;;;63.63;48.67;;;17.70;99.90;;;;;;4981182;28;21346;-67
2021/09/15 06:43:05;;;;;;;60.17;46.92;;;17.70;99.90;;;;;;4981869;28;21878;-67
2021/09/15 06:45:31;;;;;;;81.53;55.78;;;17.70;99.90;;;;;;4979670;28;20046;-67
2021/09/15 06:47:56;;;;;;;73.90;51.80;;;17.70;99.90;;;;;;4980860;28;20039;-67
2021/09/15 06:50:22;;;;;;;87.13;55.75;;;17.80;99.90;;;;;;4981826;28;20125;-67
2021/09/15 06:52:48;;;;;;;86.00;57.28;;;17.80;99.90;;;;;;4977407;28;20046;-67
2021/09/15 06:55:14;;;;;;;80.85;55.58;;;17.90;99.90;;;;;;4979996;28;20034;-67
2021/09/15 06:57:40;;;;;;;90.60;58.58;;;17.90;99.90;;;;;;4981490;28;20046;-67
2021/09/15 07:00:07;;;;;;;98.30;61.67;;;17.90;99.90;;;;;;4983826;28;20038;-67
2021/09/15 07:02:33;;;;;;;93.82;59.67;;;17.90;99.90;;;;;;4985198;28;20057;-67
2021/09/15 07:04:59;;;;;;;93.45;59.65;;;18.00;99.90;;;;;;4980814;28;20042;-67
2021/09/15 07:07:25;;;;;;;92.57;59.85;;;18.00;99.90;;;;;;4975121;28;20042;-67
2021/09/15 07:09:51;;;;;;;104.80;64.40;;;18.10;99.90;;;;;;4959607;28;20046;-67
2021/09/15 07:12:16;;;;;;;101.32;64.80;;;18.10;99.90;;;;;;4978398;28;20143;-67
2021/09/15 07:14:42;;;;;;;99.95;62.70;;;18.10;99.90;;;;;;4978873;28;20058;-67
2021/09/15 07:17:07;;;;;;;96.72;61.67;;;18.20;99.90;;;;;;4979695;28;20038;-67
2021/09/15 07:19:33;;;;;;;87.70;59.67;;;18.20;99.90;;;;;;4977755;28;20133;-67
2021/09/15 07:21:59;;;;;;;89.00;60.58;;;18.20;99.90;;;;;;4980781;28;20051;-66
2021/09/15 07:24:25;;;;;;;95.05;62.28;;;18.30;99.90;;;;;;4983837;28;20050;-67
2021/09/15 07:26:51;;;;;;;105.72;66.38;;;18.30;99.90;;;;;;4981032;28;20049;-67
2021/09/15 07:29:17;;;;;;;91.22;62.03;;;18.30;99.90;;;;;;4982656;28;20040;-67
2021/09/15 07:31:43;;;;;;;107.53;68.10;;;18.40;99.90;;;;;;4978345;28;20038;-67
2021/09/15 07:34:09;;;;;;;104.15;64.15;;;18.40;99.90;;;;;;4976964;28;20046;-67
2021/09/15 07:36:36;;;;;;;105.70;63.45;;;18.40;99.90;;;;;;4978685;28;20041;-67
2021/09/15 07:39:03;;;;;;;105.80;67.53;;;18.40;99.90;;;;;;4976563;28;20473;-67
2021/09/15 07:41:29;;;;;;;90.88;62.65;;;18.40;99.90;;;;;;4975973;28;20046;-67
2021/09/15 07:43:55;;;;;;;90.18;61.70;;;18.50;99.90;;;;;;4980588;28;20043;-67
2021/09/15 07:46:22;;;;;;;87.30;60.85;;;18.50;99.90;;;;;;4981495;28;20044;-67
2021/09/15 07:48:48;;;;;;;101.13;64.95;;;18.50;99.90;;;;;;4966973;28;20108;-67
2021/09/15 07:51:15;;;;;;;89.85;60.88;;;18.50;99.90;;;;;;4979719;28;20591;-67
2021/09/15 07:53:41;;;;;;;101.93;62.58;;;18.60;99.90;;;;;;4983798;28;20165;-67
2021/09/15 07:56:07;;;;;;;95.32;61.92;;;18.60;99.90;;;;;;4981544;28;20131;-67
2021/09/15 07:58:32;;;;;;;89.75;62.92;;;18.60;99.90;;;;;;4982356;28;20488;-67
2021/09/15 08:00:58;;;;;;;89.88;60.70;;;18.70;99.90;;;;;;4980248;28;20034;-67
2021/09/15 08:03:24;;;;;;;95.38;62.50;;;18.80;99.90;;;;;;4981761;28;20181;-67
2021/09/15 08:05:49;;;;;;;95.25;62.75;;;18.80;99.90;;;;;;4987411;28;20133;-67
2021/09/15 08:08:15;;;;;;;90.07;58.13;;;18.80;99.90;;;;;;4987670;28;20035;-67
2021/09/15 08:10:42;;;;;;;85.00;59.70;;;18.80;99.90;;;;;;4984303;28;20061;-67
2021/09/15 08:13:08;;;;;;;84.82;55.90;;;18.80;99.90;;;;;;4986740;28;20058;-67
2021/09/15 08:15:34;;;;;;;90.00;58.72;;;18.90;99.90;;;;;;4986269;28;20038;-67
2021/09/15 08:18:00;;;;;;;86.18;57.63;;;18.90;99.90;;;;;;4984722;28;20061;-67
2021/09/15 08:20:26;;;;;;;81.65;55.60;;;19.00;99.90;;;;;;4985877;28;20556;-67
2021/09/15 08:22:52;;;;;;;78.32;54.92;;;19.00;99.90;;;;;;4986236;28;20092;-67
2021/09/15 08:25:18;;;;;;;71.32;52.53;;;19.00;99.90;;;;;;4986760;28;20185;-67
2021/09/15 08:27:44;;;;;;;71.63;51.28;;;19.10;99.90;;;;;;4988784;28;20038;-67
2021/09/15 08:30:10;;;;;;;71.18;53.08;;;19.10;99.90;;;;;;4969230;28;20057;-67
2021/09/15 08:32:37;;;;;;;64.90;48.03;;;19.20;99.90;;;;;;4983251;28;20042;-67
2021/09/15 08:35:03;;;;;;;70.28;51.00;;;19.30;99.90;;;;;;4985152;28;20077;-67
2021/09/15 08:37:37;;;;;;;74.28;51.78;;;19.30;99.90;;;;;;4986163;28;20042;-67
2021/09/15 08:40:05;;;;;;;67.13;48.33;;;19.40;99.90;;;;;;4983634;28;20416;-67
2021/09/15 08:42:32;;;;;;;69.20;51.83;;;19.40;99.90;;;;;;4984476;28;20046;-67
2021/09/15 08:44:57;;;;;;;63.45;50.03;;;19.50;99.90;;;;;;4985307;28;20354;-67
2021/09/15 08:47:26;;;;;;;64.07;50.10;;;19.60;99.90;;;;;;4986474;28;20037;-67
2021/09/15 08:49:52;;;;;;;62.75;47.95;;;19.70;99.90;;;;;;4985946;28;20057;-67
2021/09/15 08:52:18;;;;;;;63.42;49.95;;;19.70;99.90;;;;;;4984328;28;20042;-67
2021/09/15 08:54:44;;;;;;;64.80;49.70;;;19.80;99.90;;;;;;4984743;28;21089;-67
2021/09/15 08:57:10;;;;;;;64.35;49.97;;;19.80;99.90;;;;;;4985673;28;20038;-67
2021/09/15 08:59:36;;;;;;;60.33;48.42;;;19.90;99.90;;;;;;4983925;28;20192;-67
2021/09/15 09:02:11;;;;;;;61.92;46.72;;;20.00;99.90;;;;;;4980847;28;20050;-67
2021/09/15 09:05:02;;;;;;;60.47;44.72;;;20.10;99.90;;;;;;4983786;28;20050;-67
2021/09/15 09:07:31;;;;;;;54.65;43.95;;;20.10;99.90;;;;;;4985213;28;20401;-67
2021/09/15 09:09:59;;;;;;;49.10;41.55;;;20.10;99.90;;;;;;4985582;28;20038;-67
2021/09/15 09:12:31;;;;;;;45.45;39.42;;;20.20;99.90;;;;;;4983270;28;20050;-67
2021/09/15 09:15:23;;;;;;;50.15;40.60;;;20.10;99.90;;;;;;4986023;28;20048;-67
2021/09/15 09:17:49;;;;;;;46.38;40.33;;;20.20;99.90;;;;;;4984406;28;20385;-67
2021/09/15 09:20:35;;;;;;;45.47;37.00;;;20.20;99.90;;;;;;4985118;28;20050;-67
2021/09/15 09:23:04;;;;;;;43.08;36.67;;;20.20;99.90;;;;;;4981606;28;20068;-67
2021/09/15 09:25:33;;;;;;;44.53;38.33;;;20.20;99.90;;;;;;4982546;28;20133;-67
2021/09/15 09:27:59;;;;;;;45.97;35.65;;;20.30;99.90;;;;;;4983239;28;20083;-67
2021/09/15 09:30:37;;;;;;;40.28;35.88;;;20.30;99.90;;;;;;4984330;28;20400;-67
2021/09/15 09:33:07;;;;;;;42.17;37.63;;;20.50;99.90;;;;;;4983533;28;20046;-67
2021/09/15 09:35:40;;;;;;;39.80;35.33;;;20.60;99.90;;;;;;4985303;28;20034;-67
2021/09/15 09:38:24;;;;;;;39.45;34.83;;;20.70;99.90;;;;;;4984862;28;20045;-67
2021/09/15 09:40:58;;;;;;;35.88;32.13;;;20.70;99.90;;;;;;4984038;28;20500;-67
2021/09/15 09:43:24;;;;;;;34.50;30.80;;;20.70;99.90;;;;;;4984410;28;20042;-67
2021/09/15 09:45:51;;;;;;;34.65;31.15;;;20.70;99.90;;;;;;4983361;28;20057;-67
2021/09/15 09:48:32;;;;;;;32.80;29.48;;;20.70;99.90;;;;;;4985464;28;20030;-67
2021/09/15 09:51:00;;;;;;;34.13;30.10;;;20.60;99.90;;;;;;4981261;28;20570;-67
2021/09/15 09:53:27;;;;;;;33.60;29.55;;;20.60;99.90;;;;;;4984922;28;20045;-67
2021/09/15 09:55:56;;;;;;;33.75;30.27;;;20.60;99.90;;;;;;4984768;28;20055;-67
2021/09/15 09:58:23;;;;;;;35.25;30.73;;;20.60;99.90;;;;;;4985925;28;20463;-67
2021/09/15 10:00:53;;;;;;;34.35;30.70;;;20.60;99.90;;;;;;4984474;28;20049;-67
2021/09/15 10:03:18;;;;;;;36.70;32.58;;;20.60;99.90;;;;;;4981804;28;20040;-67
2021/09/15 10:05:44;;;;;;;34.50;30.77;;;20.50;99.90;;;;;;4984522;28;20037;-67
2021/09/15 10:08:11;;;;;;;33.78;30.38;;;20.60;99.90;;;;;;4986539;28;20026;-67
2021/09/15 10:10:39;;;;;;;34.80;31.00;;;20.60;99.90;;;;;;4984758;28;20091;-67
2021/09/15 10:13:10;;;;;;;37.22;31.10;;;20.60;99.90;;;;;;4982542;28;20657;-67
2021/09/15 10:15:52;;;;;;;34.38;30.63;;;20.60;99.90;;;;;;4983422;28;20053;-67
2021/09/15 10:18:19;;;;;;;35.00;30.88;;;20.60;99.90;;;;;;4985494;28;20049;-67
2021/09/15 10:20:54;;;;;;;34.83;31.13;;;20.60;99.90;;;;;;4984328;28;20050;-67
2021/09/15 10:23:40;;;;;;;36.00;31.83;;;20.60;99.90;;;;;;4982758;28;20074;-67
2021/09/15 10:26:41;;;;;;;37.00;33.10;;;20.60;99.90;;;;;;4984445;28;20132;-67
2021/09/15 10:29:12;;;;;;;36.33;31.55;;;20.60;99.90;;;;;;4984426;28;20440;-65
2021/09/15 10:32:09;;;;;;;40.08;32.90;;;20.60;99.90;;;;;;4980105;28;20520;-65
2021/09/15 10:34:38;;;;;;;40.10;32.60;;;20.60;99.90;;;;;;4981267;28;20042;-65
2021/09/15 10:37:05;;;;;;;36.65;32.47;;;20.60;99.90;;;;;;4980578;28;20045;-65
2021/09/15 10:39:31;;;;;;;36.53;32.20;;;20.60;99.90;;;;;;4981958;28;20133;-65
2021/09/15 10:41:57;;;;;;;34.45;30.98;;;20.70;99.90;;;;;;4983480;28;20180;-65
2021/09/15 10:44:24;;;;;;;35.88;30.92;;;20.70;99.90;;;;;;4983434;28;20424;-66
2021/09/15 10:47:14;;;;;;;34.40;30.70;;;20.70;99.90;;;;;;4982562;28;20518;-65
2021/09/15 10:49:41;;;;;;;37.25;31.60;;;20.80;99.90;;;;;;4981892;28;20124;-65
2021/09/15 10:52:07;;;;;;;32.95;29.17;;;20.80;99.90;;;;;;4983021;28;20038;-65
2021/09/15 10:54:49;;;;;;;34.78;30.67;;;20.90;99.90;;;;;;4983377;28;20043;-65
2021/09/15 10:57:16;;;;;;;34.40;30.83;;;20.90;99.90;;;;;;4982059;28;20041;-65
2021/09/15 10:59:53;;;;;;;40.50;32.95;;;20.90;99.90;;;;;;4981362;28;20093;-65
2021/09/15 11:02:26;;;;;;;34.97;31.38;;;20.90;99.90;;;;;;4982461;28;20034;-65
2021/09/15 11:04:52;;;;;;;37.13;33.05;;;20.90;99.90;;;;;;4983735;28;20444;-65
2021/09/15 11:07:45;;;;;;;45.85;34.60;;;20.80;99.90;;;;;;4979105;28;20037;-65
2021/09/15 11:10:34;;;;;;;43.88;36.50;;;20.80;99.90;;;;;;4983507;28;20475;-65
2021/09/15 11:13:02;;;;;;;43.10;36.22;;;20.60;99.90;;;;;;4983678;28;20050;-65
2021/09/15 11:15:31;;;;;;;47.70;37.85;;;20.60;99.90;;;;;;4983768;28;20042;-65
2021/09/15 11:17:57;;;;;;;40.10;35.03;;;20.60;99.90;;;;;;4981883;28;20136;-65
2021/09/15 11:20:24;;;;;;;50.55;37.65;;;20.60;99.90;;;;;;4983039;28;20650;-65
2021/09/15 11:22:51;;;;;;;49.03;35.95;;;20.60;99.90;;;;;;4983542;28;20042;-65
2021/09/15 11:25:19;;;;;;;46.63;37.33;;;20.60;99.90;;;;;;4981084;28;20866;-65
2021/09/15 11:28:03;;;;;;;48.03;36.22;;;20.60;99.90;;;;;;4981880;28;20173;-65
2021/09/15 11:30:29;;;;;;;46.22;36.80;;;20.60;99.90;;;;;;4982384;28;20041;-65
2021/09/15 11:32:56;;;;;;;41.40;34.97;;;20.80;99.90;;;;;;4983425;28;20048;-65
2021/09/15 11:35:22;;;;;;;44.97;36.35;;;21.00;99.90;;;;;;4982630;28;20042;-65
2021/09/15 11:37:48;;;;;;;39.65;34.13;;;21.10;99.90;;;;;;4982028;28;20045;-65
2021/09/15 11:40:14;;;;;;;35.92;31.45;;;21.20;99.90;;;;;;4984776;28;20057;-65
2021/09/15 11:42:40;;;;;;;34.78;30.33;;;21.20;99.90;;;;;;4985093;28;20058;-66
2021/09/15 11:45:16;;;;;;;35.85;30.67;;;21.30;99.90;;;;;;4985170;28;20050;-66
2021/09/15 11:47:47;;;;;;;33.58;29.25;;;21.40;99.90;;;;;;4986956;28;20844;-65
2021/09/15 11:50:20;;;;;;;34.83;28.30;;;21.50;99.90;;;;;;4987370;28;20536;-65
2021/09/15 11:52:51;;;;;;;31.83;27.73;;;21.50;99.90;;;;;;4988696;28;20046;-65
2021/09/15 11:55:18;;;;;;;29.98;26.67;;;21.60;99.90;;;;;;4987782;28;20192;-65
2021/09/15 11:57:48;;;;;;;27.35;23.70;;;21.60;99.90;;;;;;4983934;28;20069;-65
2021/09/15 12:00:14;;;;;;;28.10;24.17;;;21.70;99.90;;;;;;4986218;28;20085;-65
2021/09/15 12:02:43;;;;;;;26.45;22.77;;;21.70;99.90;;;;;;4987508;28;21757;-65
2021/09/15 12:05:10;;;;;;;23.90;19.60;;;21.80;99.90;;;;;;4986756;28;20038;-65
2021/09/15 12:07:37;;;;;;;22.92;19.65;;;21.90;99.90;;;;;;4984677;28;20136;-65
2021/09/15 12:10:07;;;;;;;23.58;19.35;;;22.10;99.90;;;;;;4987150;28;20065;-65
2021/09/15 12:12:34;;;;;;;24.40;19.88;;;22.30;99.90;;;;;;4984877;28;20078;-65
2021/09/15 12:15:01;;;;;;;25.27;19.33;;;22.50;99.90;;;;;;4986424;28;20046;-65
2021/09/15 12:17:27;;;;;;;23.02;19.33;;;22.60;99.90;;;;;;4984422;28;20401;-65
2021/09/15 12:19:56;;;;;;;21.65;18.95;;;22.70;99.90;;;;;;4985786;28;20042;-65
2021/09/15 12:22:29;;;;;;;20.63;17.83;;;22.80;99.90;;;;;;4986413;28;20081;-65
2021/09/15 12:25:08;;;;;;;21.15;17.75;;;22.90;99.90;;;;;;4983731;28;20055;-66
2021/09/15 12:27:35;;;;;;;22.45;19.40;;;23.10;99.90;;;;;;4981368;28;20062;-66
2021/09/15 12:30:08;;;;;;;23.13;18.05;;;23.30;99.90;;;;;;4971559;28;20054;-66
2021/09/15 12:32:39;;;;;;;19.63;17.55;;;23.40;99.90;;;;;;4973025;28;20034;-66
2021/09/15 12:35:06;;;;;;;19.23;17.15;;;23.40;99.90;;;;;;4981280;28;20057;-65